HVK weather

Hólmavík Airport
Hólmavík, Westfjords, Iceland

Public forecast

Using degrees Celsius for public forecast. Weather courtesy of forecast.io.

Closest aviation weather report (METAR) to Hólmavík Airport

Report is more than 6 hours old.

Closest report is Ísafjörður Airport, 41.2 nm (76.3 km) WNW. Retrieved 2019/10/17 18:00 UTC (9 hours ago):

BIIS 171800Z 04016KT 9999 SCT035 05/01 Q1015

Closest aviation forecast (TAF) to Hólmavík Airport

Closest forecast is Akureyri Airport, 89.6 nm (166.0 km) E. Retrieved 2019-10-18 03:21 UTC (0 seconds ago):

TAF TAF BIAR 180119Z 1803/1903 33005KT 9999 FEW025 BKN035 TX02/1812Z TNM03/1903Z BECMG 1803/1805 CAVOK